Terminal Aerodrome Forecast
Issued by NWS

Home | Current Version | Previous Version | Graphics & Text | Print | Product List | Glossary On
Versions: 1 2 3 4 5 6 7 8 9 10 11 12 13 14 15 16 17 18 19 20 21 22 23 24 25 26 27 28 29 30 31 32 33 34 35 36 37 38 39 40 41 42 43
368
FTUS43 KGRB 152329
TAFRHI
TAF
KRHI 152329Z 1600/1624 04004KT 6SM -SN SCT015 OVC035
      TEMPO 1600/1604 1 1/2SM -SN BKN015
     FM160600 36004KT 4SM -SHSN OVC014
     FM161000 35004KT 2SM -SHSN OVC011
     FM161400 35006KT 6SM -SHSN BKN015
     FM161800 32006KT P6SM BKN035=

USA.gov is the U.S. government's official web portal to all federal, state and local government web resources and services.